Time;durP1;ratioP1;P1;durP2;ratioP2;P2;SDS_P1;SDS_P2;PMS_P1;PMS_P2;Temp;Humidity;BMP_temperature;BMP_pressure;BME280_temperature;BME280_humidity;BME280_pressure;Samples;Min_cycle;Max_cycle;Signal;HPM_P1;HPM_P2
2022/01/30 00:01:03;;;;;;;34.13;4.47;;;;;;;;;;4950709;28;106103;-66
2022/01/30 00:03:29;;;;;;;26.25;3.60;;;;;;;;;;4948934;28;106552;-64
2022/01/30 00:05:56;;;;;;;35.25;4.80;;;;;;;;;;4953148;28;107404;-64
2022/01/30 00:08:22;;;;;;;30.33;4.25;;;;;;;;;;4950919;28;106234;-64
2022/01/30 00:10:55;;;;;;;45.35;5.18;;;;;;;;;;4950254;28;107475;-65
2022/01/30 00:13:24;;;;;;;41.10;4.80;;;;;;;;;;4949678;28;106772;-64
2022/01/30 00:15:53;;;;;;;31.27;4.75;;;;;;;;;;4951803;28;106398;-64
2022/01/30 00:18:41;;;;;;;30.98;3.97;;;;;;;;;;4949614;28;106636;-64
2022/01/30 00:23:47;;;;;;;38.10;3.88;;;;;;;;;;4949776;28;107094;-64
2022/01/30 00:26:16;;;;;;;26.33;3.85;;;;;;;;;;4953295;28;106319;-65
2022/01/30 00:28:42;;;;;;;27.08;3.72;;;;;;;;;;4951042;28;106737;-64
2022/01/30 00:31:10;;;;;;;27.95;4.05;;;;;;;;;;4948956;28;106968;-66
2022/01/30 00:33:36;;;;;;;28.73;3.70;;;;;;;;;;4947853;28;106351;-65
2022/01/30 00:36:03;;;;;;;22.73;3.17;;;;;;;;;;4952137;28;107293;-66
2022/01/30 00:38:34;;;;;;;31.23;4.15;;;;;;;;;;4950053;28;107999;-65
2022/01/30 00:41:00;;;;;;;26.15;3.40;;;;;;;;;;4949858;28;107503;-65
2022/01/30 00:43:27;;;;;;;24.42;3.50;;;;;;;;;;4948387;28;106870;-65
2022/01/30 00:45:53;;;;;;;29.20;3.55;;;;;;;;;;4951334;28;108239;-65
2022/01/30 00:48:20;;;;;;;24.92;3.80;;;;;;;;;;4952492;28;106296;-65
2022/01/30 00:50:48;;;;;;;22.10;4.07;;;;;;;;;;4959996;28;109366;-65
2022/01/30 00:53:17;;;;;;;26.98;4.03;;;;;;;;;;4948381;28;106825;-65
2022/01/30 00:55:44;;;;;;;26.77;3.80;;;;;;;;;;4949510;28;108729;-65
2022/01/30 00:58:10;;;;;;;25.92;3.78;;;;;;;;;;4947993;28;109009;-65
2022/01/30 01:00:37;;;;;;;31.35;4.25;;;;;;;;;;4958883;28;106634;-66
2022/01/30 01:03:04;;;;;;;21.63;3.03;;;;;;;;;;4949336;28;106629;-65
2022/01/30 01:05:33;;;;;;;26.80;3.15;;;;;;;;;;4949814;28;107334;-65
2022/01/30 01:08:07;;;;;;;27.23;4.20;;;;;;;;;;4947830;28;106203;-65
2022/01/30 01:10:40;;;;;;;27.02;3.75;;;;;;;;;;4942167;28;108348;-65
2022/01/30 01:23:58;;;;;;;36.33;4.57;;;;;;;;;;4950903;28;106221;-65
2022/01/30 01:26:25;;;;;;;32.47;3.80;;;;;;;;;;4945831;28;108268;-65
2022/01/30 01:28:53;;;;;;;37.70;4.30;;;;;;;;;;4948769;28;106924;-65
2022/01/30 01:31:19;;;;;;;36.10;4.00;;;;;;;;;;4948972;28;106745;-64
2022/01/30 01:34:02;;;;;;;34.08;3.67;;;;;;;;;;4952127;28;107290;-65
2022/01/30 01:36:29;;;;;;;23.33;3.85;;;;;;;;;;4948225;28;106778;-64
2022/01/30 01:38:56;;;;;;;23.38;3.20;;;;;;;;;;4947573;28;108313;-65
2022/01/30 01:41:24;;;;;;;27.58;4.00;;;;;;;;;;4949373;28;106789;-65
2022/01/30 01:43:50;;;;;;;32.30;4.82;;;;;;;;;;4936489;28;108480;-65
2022/01/30 01:46:23;;;;;;;29.30;3.83;;;;;;;;;;4945286;28;106968;-65
2022/01/30 01:48:52;;;;;;;27.25;3.80;;;;;;;;;;4948830;28;107724;-65
2022/01/30 01:51:31;;;;;;;26.15;3.42;;;;;;;;;;4933955;28;106987;-64
2022/01/30 01:53:58;;;;;;;30.95;3.58;;;;;;;;;;4943980;28;109591;-64
2022/01/30 01:56:25;;;;;;;29.45;3.33;;;;;;;;;;4939261;28;106306;-64
2022/01/30 01:59:02;;;;;;;32.20;3.92;;;;;;;;;;4947690;28;109011;-64
2022/01/30 02:01:52;;;;;;;25.23;3.33;;;;;;;;;;4949392;28;106007;-65
2022/01/30 02:04:20;;;;;;;25.70;3.60;;;;;;;;;;4948095;28;107118;-65
2022/01/30 02:06:49;;;;;;;31.98;4.30;;;;;;;;;;4942924;28;110969;-65
2022/01/30 02:09:15;;;;;;;37.65;5.07;;;;;;;;;;4927822;28;106656;-65
2022/01/30 02:11:46;;;;;;;23.90;3.40;;;;;;;;;;4927518;28;108135;-65
2022/01/30 02:14:31;;;;;;;30.40;4.30;;;;;;;;;;4926937;28;107333;-65
2022/01/30 02:25:31;;;;;;;27.33;3.30;;;;;;;;;;4943399;28;108509;-65
2022/01/30 02:28:00;;;;;;;34.92;3.58;;;;;;;;;;4935942;28;108546;-65
2022/01/30 02:30:33;;;;;;;28.48;3.00;;;;;;;;;;4928585;28;107642;-65
2022/01/30 02:32:59;;;;;;;24.25;3.08;;;;;;;;;;4943330;28;108071;-65
2022/01/30 02:35:26;;;;;;;27.15;4.68;;;;;;;;;;4942570;28;108959;-65
2022/01/30 02:37:54;;;;;;;20.80;3.55;;;;;;;;;;4930359;28;106110;-65
2022/01/30 02:40:21;;;;;;;19.88;2.67;;;;;;;;;;4946309;28;108445;-65
2022/01/30 02:42:52;;;;;;;24.20;2.45;;;;;;;;;;4937193;28;106442;-65
2022/01/30 02:45:20;;;;;;;13.77;2.50;;;;;;;;;;4944017;28;107706;-64
2022/01/30 02:47:58;;;;;;;29.83;2.67;;;;;;;;;;4943274;28;108951;-65
2022/01/30 02:50:38;;;;;;;19.60;2.72;;;;;;;;;;4926470;28;107714;-65
2022/01/30 02:53:07;;;;;;;;;;;;;;;;;;4920009;28;108399;-66
2022/01/30 02:55:33;;;;;;;15.85;2.05;;;;;;;;;;4942120;28;136611;-65
2022/01/30 02:58:01;;;;;;;15.82;2.30;;;;;;;;;;4942325;28;105676;-65
2022/01/30 03:00:27;;;;;;;18.95;2.33;;;;;;;;;;4939699;28;108168;-64
2022/01/30 03:02:53;;;;;;;23.33;2.65;;;;;;;;;;4945740;28;109462;-64
2022/01/30 03:05:20;;;;;;;22.27;3.03;;;;;;;;;;4935839;28;107618;-65
2022/01/30 03:07:47;;;;;;;19.98;2.22;;;;;;;;;;4936164;28;109356;-64
2022/01/30 03:10:14;;;;;;;23.27;2.85;;;;;;;;;;4945988;28;106875;-65
2022/01/30 03:12:41;;;;;;;23.63;2.72;;;;;;;;;;4933670;28;106763;-65
2022/01/30 03:15:09;;;;;;;27.23;2.70;;;;;;;;;;4929538;28;109459;-64
2022/01/30 03:17:35;;;;;;;21.13;2.40;;;;;;;;;;4948094;28;106031;-64
2022/01/30 03:20:03;;;;;;;17.45;1.88;;;;;;;;;;4955456;28;107935;-65
2022/01/30 03:22:29;;;;;;;22.50;3.30;;;;;;;;;;4959329;28;109197;-64
2022/01/30 03:24:56;;;;;;;19.30;2.67;;;;;;;;;;4935794;28;105843;-64
2022/01/30 03:27:57;;;;;;;16.48;2.38;;;;;;;;;;4900525;28;106684;-64
2022/01/30 03:30:30;;;;;;;23.38;2.80;;;;;;;;;;4923179;28;106157;-64
2022/01/30 03:33:05;;;;;;;20.80;3.28;;;;;;;;;;4929028;28;107787;-64
2022/01/30 03:35:33;;;;;;;21.83;2.58;;;;;;;;;;4929955;28;108811;-64
2022/01/30 03:38:00;;;;;;;20.60;2.33;;;;;;;;;;4947376;28;105961;-64
2022/01/30 03:40:28;;;;;;;15.93;2.30;;;;;;;;;;4948486;28;108235;-64
2022/01/30 03:42:55;;;;;;;15.18;2.15;;;;;;;;;;4946020;28;109117;-63
2022/01/30 03:45:21;;;;;;;23.45;3.00;;;;;;;;;;4946160;28;106669;-64
2022/01/30 03:47:51;;;;;;;33.70;2.35;;;;;;;;;;4948627;28;108323;-64
2022/01/30 03:50:24;;;;;;;15.90;3.95;;;;;;;;;;4928355;28;106980;-64
2022/01/30 03:52:50;;;;;;;17.65;2.55;;;;;;;;;;4952454;28;108697;-64
2022/01/30 03:55:18;;;;;;;19.45;1.95;;;;;;;;;;4958337;28;107467;-64
2022/01/30 03:57:44;;;;;;;21.00;2.45;;;;;;;;;;4946932;28;106598;-66
2022/01/30 04:00:11;;;;;;;36.83;3.35;;;;;;;;;;4940525;28;109066;-64
2022/01/30 04:02:44;;;;;;;9.68;2.05;;;;;;;;;;4946023;28;106171;-64
2022/01/30 04:05:11;;;;;;;11.15;1.80;;;;;;;;;;4943302;28;106187;-65
2022/01/30 04:07:40;;;;;;;16.90;1.83;;;;;;;;;;4949715;28;108045;-65
2022/01/30 04:10:19;;;;;;;22.05;2.53;;;;;;;;;;4949510;28;107308;-64
2022/01/30 04:13:02;;;;;;;13.07;2.17;;;;;;;;;;4940652;28;108673;-64
2022/01/30 04:15:48;;;;;;;16.23;2.00;;;;;;;;;;4946652;28;106146;-64
2022/01/30 04:18:26;;;;;;;14.50;2.40;;;;;;;;;;4935518;28;107073;-64
2022/01/30 04:21:12;;;;;;;16.88;2.33;;;;;;;;;;4936573;28;108010;-64
2022/01/30 04:23:57;;;;;;;16.08;2.85;;;;;;;;;;4946172;28;107468;-64
2022/01/30 04:26:36;;;;;;;21.77;2.47;;;;;;;;;;4952418;28;106312;-65
2022/01/30 04:29:23;;;;;;;25.50;2.80;;;;;;;;;;4947237;28;106204;-65
2022/01/30 04:31:59;;;;;;;16.17;2.33;;;;;;;;;;4945985;28;108998;-65
2022/01/30 04:34:51;;;;;;;18.58;2.65;;;;;;;;;;4942791;28;106150;-66
2022/01/30 04:38:01;;;;;;;21.23;2.20;;;;;;;;;;4947366;28;108729;-66
2022/01/30 04:53:12;;;;;;;22.65;3.33;;;;;;;;;;4950403;28;106135;-65
2022/01/30 04:59:14;;;;;;;23.45;2.22;;;;;;;;;;4952805;28;106636;-65
2022/01/30 05:07:34;;;;;;;15.68;1.92;;;;;;;;;;4949275;28;108319;-65
2022/01/30 05:10:20;;;;;;;19.45;2.80;;;;;;;;;;4946665;28;107195;-63
2022/01/30 05:12:59;;;;;;;22.35;2.67;;;;;;;;;;4949292;28;106283;-64
2022/01/30 05:15:31;;;;;;;15.93;2.10;;;;;;;;;;4940418;28;108122;-63
2022/01/30 05:18:17;;;;;;;18.35;2.58;;;;;;;;;;4932150;28;106537;-66
2022/01/30 05:21:02;;;;;;;26.83;4.50;;;;;;;;;;4949009;28;106635;-64
2022/01/30 05:23:48;;;;;;;22.77;3.30;;;;;;;;;;4948590;28;106431;-64
2022/01/30 05:26:24;;;;;;;18.60;2.92;;;;;;;;;;4949707;28;106209;-64
2022/01/30 05:29:09;;;;;;;16.63;2.22;;;;;;;;;;4962880;28;106750;-65
2022/01/30 05:31:47;;;;;;;22.83;2.60;;;;;;;;;;4946575;28;108854;-64
2022/01/30 05:34:31;;;;;;;27.42;2.85;;;;;;;;;;4921251;28;105932;-64
2022/01/30 05:37:18;;;;;;;24.42;2.75;;;;;;;;;;4947286;28;106621;-64
2022/01/30 05:40:11;;;;;;;24.67;2.95;;;;;;;;;;4947526;28;107734;-64
2022/01/30 05:42:49;;;;;;;20.60;2.80;;;;;;;;;;4948794;28;105944;-66
2022/01/30 05:45:50;;;;;;;23.77;3.25;;;;;;;;;;4940380;28;108117;-65
2022/01/30 05:48:35;;;;;;;26.40;2.53;;;;;;;;;;4951887;28;106467;-64
2022/01/30 05:51:17;;;;;;;22.80;2.55;;;;;;;;;;4947877;28;107029;-64
2022/01/30 05:53:46;;;;;;;21.60;2.77;;;;;;;;;;4932486;28;108653;-64
2022/01/30 05:56:16;;;;;;;19.48;2.85;;;;;;;;;;4948166;28;106226;-64
2022/01/30 05:58:43;;;;;;;37.78;3.28;;;;;;;;;;4939947;28;108447;-64
2022/01/30 06:01:44;;;;;;;22.58;3.35;;;;;;;;;;4909114;28;106446;-64
2022/01/30 06:04:17;;;;;;;30.50;3.15;;;;;;;;;;4939958;28;105953;-64
2022/01/30 06:06:50;;;;;;;20.75;3.15;;;;;;;;;;4947139;28;108543;-64
2022/01/30 06:11:47;;;;;;;27.65;3.97;;;;;;;;;;4947763;28;106606;-64
2022/01/30 06:14:16;;;;;;;21.05;2.90;;;;;;;;;;4929109;28;108779;-67
2022/01/30 06:16:43;;;;;;;25.63;3.33;;;;;;;;;;4946785;28;106356;-66
2022/01/30 06:19:36;;;;;;;29.65;2.92;;;;;;;;;;4946824;28;107688;-66
2022/01/30 06:22:37;;;;;;;24.98;3.78;;;;;;;;;;4947071;28;108298;-66
2022/01/30 06:25:26;;;;;;;23.13;2.75;;;;;;;;;;4945458;28;108567;-66
2022/01/30 06:28:15;;;;;;;20.63;3.83;;;;;;;;;;4948297;28;106662;-66
2022/01/30 06:31:20;;;;;;;21.85;3.95;;;;;;;;;;4937281;28;107514;-65
2022/01/30 06:34:09;;;;;;;36.83;3.33;;;;;;;;;;4947880;28;106670;-67
2022/01/30 06:37:04;;;;;;;26.77;3.35;;;;;;;;;;4951395;28;106682;-67
2022/01/30 06:39:56;;;;;;;24.95;3.17;;;;;;;;;;4947585;28;106365;-66
2022/01/30 06:42:41;;;;;;;26.10;3.20;;;;;;;;;;4948308;28;106391;-65
2022/01/30 06:45:27;;;;;;;22.45;3.13;;;;;;;;;;4945444;28;106391;-64
2022/01/30 06:48:17;;;;;;;31.13;2.60;;;;;;;;;;4946991;28;106757;-65
2022/01/30 06:51:02;;;;;;;21.58;3.03;;;;;;;;;;4949902;28;106656;-64
2022/01/30 06:53:47;;;;;;;23.20;2.95;;;;;;;;;;4949106;28;108292;-65
2022/01/30 06:56:51;;;;;;;19.65;2.63;;;;;;;;;;4948194;28;106366;-64
2022/01/30 06:59:36;;;;;;;33.15;3.65;;;;;;;;;;4940666;28;106701;-64
2022/01/30 07:02:21;;;;;;;28.15;3.28;;;;;;;;;;4950999;28;105913;-64
2022/01/30 07:05:08;;;;;;;30.55;3.65;;;;;;;;;;4932759;28;107436;-65
2022/01/30 07:07:45;;;;;;;27.65;3.45;;;;;;;;;;4947410;28;109057;-67
2022/01/30 07:10:12;;;;;;;27.48;4.22;;;;;;;;;;4947717;28;107898;-66
2022/01/30 07:12:38;;;;;;;30.35;4.53;;;;;;;;;;4947302;28;106397;-66
2022/01/30 07:15:04;;;;;;;30.00;3.15;;;;;;;;;;4947220;28;107674;-66
2022/01/30 07:17:31;;;;;;;29.90;2.88;;;;;;;;;;4947461;28;106309;-66
2022/01/30 07:19:57;;;;;;;27.27;3.85;;;;;;;;;;4947619;28;105850;-66
2022/01/30 07:22:24;;;;;;;25.08;4.40;;;;;;;;;;4950301;28;107430;-66
2022/01/30 07:24:50;;;;;;;27.88;3.30;;;;;;;;;;4941469;28;106730;-66
2022/01/30 07:27:16;;;;;;;23.45;3.80;;;;;;;;;;4946317;28;106351;-67
2022/01/30 07:29:43;;;;;;;34.50;3.45;;;;;;;;;;4949012;28;106437;-66
2022/01/30 07:32:09;;;;;;;23.55;3.63;;;;;;;;;;4945653;28;106182;-67
2022/01/30 07:34:35;;;;;;;19.42;3.20;;;;;;;;;;4939145;28;109103;-66
2022/01/30 07:37:02;;;;;;;26.00;3.85;;;;;;;;;;4947803;28;107554;-66
2022/01/30 07:39:30;;;;;;;24.77;3.33;;;;;;;;;;4948080;28;106004;-66
2022/01/30 07:41:57;;;;;;;23.80;3.28;;;;;;;;;;4947717;28;107372;-66
2022/01/30 07:44:28;;;;;;;17.00;2.53;;;;;;;;;;4937971;28;106377;-66
2022/01/30 07:46:55;;;;;;;42.88;3.38;;;;;;;;;;4946858;28;106705;-67
2022/01/30 07:49:21;;;;;;;29.67;3.22;;;;;;;;;;4946022;28;106447;-67
2022/01/30 07:51:48;;;;;;;30.33;3.30;;;;;;;;;;4948782;28;106628;-65
2022/01/30 07:54:14;;;;;;;29.67;3.58;;;;;;;;;;4938701;28;109351;-66
2022/01/30 07:56:41;;;;;;;26.77;4.05;;;;;;;;;;4947555;28;106278;-65
2022/01/30 07:59:08;;;;;;;24.27;3.70;;;;;;;;;;4948198;28;106098;-65
2022/01/30 08:01:35;;;;;;;36.63;3.95;;;;;;;;;;4927825;28;106278;-65
2022/01/30 08:04:03;;;;;;;33.30;3.38;;;;;;;;;;4947701;28;107205;-65
2022/01/30 08:06:30;;;;;;;26.70;3.63;;;;;;;;;;4947122;28;107253;-64
2022/01/30 08:08:56;;;;;;;30.50;3.53;;;;;;;;;;4947560;28;105992;-66
2022/01/30 08:11:22;;;;;;;35.00;4.95;;;;;;;;;;4947927;28;107115;-66
2022/01/30 08:13:48;;;;;;;30.77;4.22;;;;;;;;;;4945620;28;106969;-65
2022/01/30 08:16:15;;;;;;;34.17;3.67;;;;;;;;;;4946294;28;105890;-65
2022/01/30 08:18:41;;;;;;;28.60;3.72;;;;;;;;;;4944768;28;106768;-65
2022/01/30 08:21:08;;;;;;;30.08;4.50;;;;;;;;;;4948665;28;107526;-65
2022/01/30 08:23:34;;;;;;;31.88;5.50;;;;;;;;;;4950093;28;105868;-67
2022/01/30 08:26:01;;;;;;;28.48;3.72;;;;;;;;;;4950965;28;107303;-65
2022/01/30 08:28:28;;;;;;;28.48;4.28;;;;;;;;;;4952960;28;107989;-65
2022/01/30 08:30:54;;;;;;;25.05;3.88;;;;;;;;;;4938410;28;108848;-66
2022/01/30 08:33:21;;;;;;;31.52;4.18;;;;;;;;;;4949567;28;106358;-65
2022/01/30 08:35:48;;;;;;;33.03;3.83;;;;;;;;;;4950593;28;106836;-67
2022/01/30 08:38:17;;;;;;;32.15;4.82;;;;;;;;;;4947891;28;106131;-66
2022/01/30 08:40:44;;;;;;;;;;;;;;;;;;4951318;28;107298;-66
2022/01/30 08:43:10;;;;;;;40.97;4.38;;;;;;;;;;4949393;28;122238;-65
2022/01/30 08:45:36;;;;;;;34.38;3.70;;;;;;;;;;4950484;28;106870;-67
2022/01/30 08:48:03;;;;;;;32.88;2.97;;;;;;;;;;4949828;28;107064;-71
2022/01/30 08:50:30;;;;;;;24.67;3.45;;;;;;;;;;4949393;28;106645;-67
2022/01/30 08:52:56;;;;;;;33.80;3.45;;;;;;;;;;4942857;28;107272;-66
2022/01/30 08:55:22;;;;;;;31.88;4.18;;;;;;;;;;4947937;28;106987;-66
2022/01/30 08:57:49;;;;;;;27.10;3.63;;;;;;;;;;4945891;28;107547;-66
2022/01/30 09:00:16;;;;;;;35.50;3.80;;;;;;;;;;4949423;28;106368;-66
2022/01/30 09:02:43;;;;;;;24.98;3.92;;;;;;;;;;4943279;28;106384;-66
2022/01/30 09:05:10;;;;;;;25.42;3.60;;;;;;;;;;4947393;28;107385;-67
2022/01/30 09:07:38;;;;;;;28.55;3.45;;;;;;;;;;4948081;28;108483;-66
2022/01/30 09:10:05;;;;;;;31.33;3.72;;;;;;;;;;4954291;28;106872;-67
2022/01/30 09:12:34;;;;;;;25.50;3.40;;;;;;;;;;4946498;28;107505;-65
2022/01/30 09:15:04;;;;;;;34.90;3.67;;;;;;;;;;4949423;28;105909;-66
2022/01/30 09:17:30;;;;;;;32.35;3.75;;;;;;;;;;4947767;28;106881;-66
2022/01/30 09:19:57;;;;;;;30.58;4.55;;;;;;;;;;4949276;28;106522;-66
2022/01/30 09:22:24;;;;;;;26.63;3.97;;;;;;;;;;4948428;28;106051;-66
2022/01/30 09:24:51;;;;;;;29.92;4.30;;;;;;;;;;4949540;28;106503;-66
2022/01/30 09:27:17;;;;;;;27.35;3.78;;;;;;;;;;4948216;28;107973;-66
2022/01/30 09:29:44;;;;;;;36.40;5.53;;;;;;;;;;4954024;28;106664;-66
2022/01/30 09:32:11;;;;;;;29.88;3.80;;;;;;;;;;4945990;28;107031;-65
2022/01/30 09:34:37;;;;;;;55.45;6.70;;;;;;;;;;4947313;28;106869;-66
2022/01/30 09:37:05;;;;;;;42.30;3.90;;;;;;;;;;4949971;28;105995;-67
2022/01/30 09:39:31;;;;;;;28.45;3.42;;;;;;;;;;4945908;28;106350;-66
2022/01/30 09:41:57;;;;;;;32.63;4.55;;;;;;;;;;4947401;28;107036;-66
2022/01/30 09:44:24;;;;;;;30.58;3.50;;;;;;;;;;4944293;28;106707;-66
2022/01/30 09:46:51;;;;;;;32.45;4.18;;;;;;;;;;4946160;28;107397;-66
2022/01/30 09:49:26;;;;;;;36.30;4.07;;;;;;;;;;4951611;28;107430;-66
2022/01/30 09:51:53;;;;;;;32.00;4.75;;;;;;;;;;4942407;28;107309;-66
2022/01/30 09:54:20;;;;;;;26.20;4.15;;;;;;;;;;4950549;28;107530;-66
2022/01/30 09:56:46;;;;;;;45.90;5.38;;;;;;;;;;4948065;28;106613;-65
2022/01/30 09:59:13;;;;;;;35.80;4.80;;;;;;;;;;4947538;28;107093;-67
2022/01/30 10:01:39;;;;;;;37.20;5.90;;;;;;;;;;4948067;28;106862;-67
2022/01/30 10:04:06;;;;;;;37.92;4.38;;;;;;;;;;4946194;28;107251;-68
2022/01/30 10:06:52;;;;;;;42.42;4.90;;;;;;;;;;4946944;28;107513;-67
2022/01/30 10:09:21;;;;;;;27.10;3.67;;;;;;;;;;4946387;28;106825;-67
2022/01/30 10:11:50;;;;;;;37.05;4.50;;;;;;;;;;4949102;28;107497;-65
2022/01/30 10:14:17;;;;;;;33.95;4.50;;;;;;;;;;4947193;28;108333;-64
2022/01/30 10:17:03;;;;;;;30.88;4.03;;;;;;;;;;4949744;28;107076;-65
2022/01/30 10:19:29;;;;;;;33.15;3.90;;;;;;;;;;4948907;28;106754;-66
2022/01/30 10:22:06;;;;;;;35.95;4.90;;;;;;;;;;4950157;28;106258;-66
2022/01/30 10:24:36;;;;;;;33.33;4.25;;;;;;;;;;4949214;28;106368;-64
2022/01/30 10:27:17;;;;;;;37.88;4.65;;;;;;;;;;4948451;28;108020;-66
2022/01/30 10:29:44;;;;;;;36.65;4.60;;;;;;;;;;4948974;28;106363;-66
2022/01/30 10:32:10;;;;;;;34.63;4.65;;;;;;;;;;4948042;28;106129;-66
2022/01/30 10:34:37;;;;;;;23.35;3.72;;;;;;;;;;4948107;28;107622;-66
2022/01/30 10:37:10;;;;;;;33.00;4.38;;;;;;;;;;4948877;28;106024;-67
2022/01/30 10:39:52;;;;;;;38.38;4.25;;;;;;;;;;4951466;28;107467;-65
2022/01/30 10:42:38;;;;;;;33.67;4.32;;;;;;;;;;4946078;28;107896;-65
2022/01/30 10:45:06;;;;;;;29.35;3.90;;;;;;;;;;4949046;28;107664;-65
2022/01/30 10:47:35;;;;;;;44.78;4.97;;;;;;;;;;4947610;28;108132;-65
2022/01/30 10:50:01;;;;;;;32.58;5.15;;;;;;;;;;4948753;28;106518;-65
2022/01/30 10:52:30;;;;;;;31.05;5.10;;;;;;;;;;4946722;28;107922;-65
2022/01/30 10:55:04;;;;;;;29.75;4.82;;;;;;;;;;4931620;28;109253;-65
2022/01/30 10:57:38;;;;;;;31.42;5.38;;;;;;;;;;4948702;28;106062;-66
2022/01/30 11:00:05;;;;;;;29.13;4.75;;;;;;;;;;4949859;28;106854;-67
2022/01/30 11:02:36;;;;;;;26.65;4.15;;;;;;;;;;4950638;28;107721;-66
2022/01/30 11:05:06;;;;;;;33.35;4.63;;;;;;;;;;4948073;28;106653;-65
2022/01/30 11:07:36;;;;;;;37.45;4.68;;;;;;;;;;4936526;28;106368;-66
2022/01/30 11:10:16;;;;;;;29.20;4.22;;;;;;;;;;4949298;28;106280;-66
2022/01/30 11:13:08;;;;;;;42.40;5.05;;;;;;;;;;4948807;28;107141;-67
2022/01/30 11:15:38;;;;;;;43.90;4.57;;;;;;;;;;4947336;28;108238;-67
2022/01/30 11:18:05;;;;;;;32.05;4.80;;;;;;;;;;4949107;28;106242;-67
2022/01/30 11:20:32;;;;;;;32.33;4.22;;;;;;;;;;4948267;28;107917;-66
2022/01/30 11:23:04;;;;;;;18.20;3.80;;;;;;;;;;4950323;28;107265;-67
2022/01/30 11:25:35;;;;;;;31.92;3.78;;;;;;;;;;4947795;28;107734;-67
2022/01/30 11:28:04;;;;;;;27.17;4.45;;;;;;;;;;4947759;28;109372;-64
2022/01/30 11:30:46;;;;;;;32.95;4.60;;;;;;;;;;4947048;28;106096;-69
2022/01/30 11:33:13;;;;;;;36.80;4.68;;;;;;;;;;4946724;28;106742;-66
2022/01/30 11:35:41;;;;;;;34.63;5.53;;;;;;;;;;4945708;28;107610;-65
2022/01/30 11:38:09;;;;;;;32.87;4.13;;;;;;;;;;4947043;28;107664;-66
2022/01/30 11:40:35;;;;;;;29.40;4.93;;;;;;;;;;4947935;28;106846;-65
2022/01/30 11:43:07;;;;;;;28.42;4.75;;;;;;;;;;4948251;28;107465;-64
2022/01/30 11:45:34;;;;;;;35.35;4.88;;;;;;;;;;4952746;28;106077;-64
2022/01/30 11:48:14;;;;;;;24.83;4.25;;;;;;;;;;4948171;28;107735;-64
2022/01/30 11:50:41;;;;;;;;;;;;;;;;;;4948623;28;107437;-65
2022/01/30 11:53:12;;;;;;;33.28;4.57;;;;;;;;;;4948496;28;135076;-66
2022/01/30 11:55:54;;;;;;;32.35;5.07;;;;;;;;;;4950302;28;107434;-64
2022/01/30 11:58:30;;;;;;;25.88;4.63;;;;;;;;;;4949483;28;106081;-65
2022/01/30 12:00:58;;;;;;;38.35;5.10;;;;;;;;;;4951585;28;105765;-67
2022/01/30 12:03:28;;;;;;;33.85;5.38;;;;;;;;;;4949317;28;106371;-66
2022/01/30 12:05:56;;;;;;;37.38;5.20;;;;;;;;;;4948056;28;107693;-64
2022/01/30 12:08:40;;;;;;;45.20;5.05;;;;;;;;;;4952575;28;107909;-66
2022/01/30 12:11:27;;;;;;;27.00;4.18;;;;;;;;;;4948377;28;107520;-67
2022/01/30 12:13:53;;;;;;;31.58;4.45;;;;;;;;;;4950569;28;106925;-64
2022/01/30 12:16:38;;;;;;;31.08;3.92;;;;;;;;;;4950694;28;107934;-64
2022/01/30 12:19:05;;;;;;;32.42;4.88;;;;;;;;;;4946446;28;106489;-66
2022/01/30 12:21:32;;;;;;;32.20;4.95;;;;;;;;;;4949210;28;108099;-65
2022/01/30 12:24:18;;;;;;;34.15;5.28;;;;;;;;;;4949236;28;106372;-64
2022/01/30 12:26:55;;;;;;;38.90;4.50;;;;;;;;;;4948468;28;106052;-65
2022/01/30 12:29:34;;;;;;;29.95;3.97;;;;;;;;;;4949303;28;106470;-64
2022/01/30 12:32:20;;;;;;;29.30;4.20;;;;;;;;;;4951756;28;107331;-65
2022/01/30 12:34:47;;;;;;;34.65;5.40;;;;;;;;;;4951219;28;106691;-63
2022/01/30 12:37:19;;;;;;;31.40;4.85;;;;;;;;;;4950176;28;106325;-64
2022/01/30 12:39:46;;;;;;;33.75;5.28;;;;;;;;;;4950902;28;105861;-64
2022/01/30 12:42:16;;;;;;;29.95;4.25;;;;;;;;;;4949704;28;107351;-66
2022/01/30 12:44:43;;;;;;;28.63;4.45;;;;;;;;;;4950644;28;106798;-64
2022/01/30 12:47:10;;;;;;;32.22;4.35;;;;;;;;;;4950062;28;106365;-65
2022/01/30 12:49:50;;;;;;;34.08;4.47;;;;;;;;;;4949573;28;106848;-64
2022/01/30 12:52:36;;;;;;;29.02;4.25;;;;;;;;;;4947974;28;107745;-64
2022/01/30 12:55:09;;;;;;;25.83;3.97;;;;;;;;;;4951453;28;107400;-64
2022/01/30 12:57:36;;;;;;;33.03;6.00;;;;;;;;;;4950071;28;107393;-64
2022/01/30 13:00:07;;;;;;;33.53;3.97;;;;;;;;;;4949948;28;106357;-64
2022/01/30 13:02:39;;;;;;;27.25;3.90;;;;;;;;;;4951170;28;106694;-64
2022/01/30 13:05:08;;;;;;;31.27;4.38;;;;;;;;;;4949352;28;106269;-66
2022/01/30 13:07:35;;;;;;;30.35;4.50;;;;;;;;;;4913328;28;106153;-66
2022/01/30 13:10:12;;;;;;;28.90;4.55;;;;;;;;;;4912179;28;108028;-66
2022/01/30 13:12:39;;;;;;;34.13;4.10;;;;;;;;;;4902716;28;107394;-65
2022/01/30 13:15:07;;;;;;;31.98;4.63;;;;;;;;;;4910969;28;108112;-66
2022/01/30 13:17:33;;;;;;;31.85;4.53;;;;;;;;;;4916673;28;107220;-65
2022/01/30 13:20:00;;;;;;;34.97;5.03;;;;;;;;;;4909551;28;108815;-66
2022/01/30 13:22:33;;;;;;;30.02;4.32;;;;;;;;;;4911196;28;106297;-65
2022/01/30 13:25:02;;;;;;;27.70;4.03;;;;;;;;;;4911088;28;106251;-65
2022/01/30 13:27:29;;;;;;;30.63;4.30;;;;;;;;;;4910104;28;109097;-67
2022/01/30 13:29:55;;;;;;;32.67;4.90;;;;;;;;;;4909098;28;106375;-66
2022/01/30 13:32:24;;;;;;;40.45;5.32;;;;;;;;;;4910378;28;107762;-67
2022/01/30 13:34:50;;;;;;;33.42;4.28;;;;;;;;;;4909208;28;106264;-64
2022/01/30 13:37:19;;;;;;;38.97;5.13;;;;;;;;;;4912923;28;106559;-64
2022/01/30 13:43:04;;;;;;;31.88;4.68;;;;;;;;;;4908155;28;106427;-64
2022/01/30 13:47:54;;;;;;;31.73;3.90;;;;;;;;;;4909952;28;105943;-65
2022/01/30 13:50:22;;;;;;;24.67;4.55;;;;;;;;;;4910523;28;107131;-64
2022/01/30 13:52:58;;;;;;;36.22;4.28;;;;;;;;;;4910191;28;106260;-64
2022/01/30 13:55:25;;;;;;;32.83;3.78;;;;;;;;;;4909995;28;105997;-64
2022/01/30 13:57:56;;;;;;;32.28;4.75;;;;;;;;;;4911520;28;106715;-64
2022/01/30 14:00:23;;;;;;;31.70;3.95;;;;;;;;;;4913676;28;107468;-64
2022/01/30 14:02:56;;;;;;;24.50;3.83;;;;;;;;;;4909243;28;106641;-63
2022/01/30 14:05:24;;;;;;;28.35;4.07;;;;;;;;;;4908828;28;106322;-63
2022/01/30 14:07:51;;;;;;;28.88;4.20;;;;;;;;;;4948701;28;108109;-64
2022/01/30 14:10:18;;;;;;;29.70;4.22;;;;;;;;;;4942545;28;109475;-64
2022/01/30 14:12:45;;;;;;;29.67;4.10;;;;;;;;;;4939955;28;107732;-64
2022/01/30 14:15:12;;;;;;;30.33;4.50;;;;;;;;;;4941574;28;106709;-66
2022/01/30 14:17:42;;;;;;;31.60;4.25;;;;;;;;;;4940986;28;107886;-64
2022/01/30 14:20:11;;;;;;;;;;;;;;;;;;4940394;28;108121;-68
2022/01/30 14:22:38;;;;;;;31.70;4.82;;;;;;;;;;4944833;28;107176;-65
2022/01/30 14:25:07;;;;;;;36.72;3.75;;;;;;;;;;4943478;28;107325;-65
2022/01/30 14:27:34;;;;;;;28.10;3.75;;;;;;;;;;4944904;28;106691;-64
2022/01/30 14:30:04;;;;;;;22.90;3.75;;;;;;;;;;4952876;28;107936;-65
2022/01/30 14:32:33;;;;;;;29.75;4.30;;;;;;;;;;4953429;28;108585;-64
2022/01/30 14:35:02;;;;;;;27.58;4.30;;;;;;;;;;4944390;28;106542;-64
2022/01/30 14:37:30;;;;;;;28.10;4.83;;;;;;;;;;4948228;28;106159;-65
2022/01/30 14:39:58;;;;;;;32.28;3.83;;;;;;;;;;4947158;28;107440;-64
2022/01/30 14:42:24;;;;;;;27.58;4.78;;;;;;;;;;4948514;28;106692;-64
2022/01/30 14:44:51;;;;;;;34.05;3.70;;;;;;;;;;4949165;28;106496;-65
2022/01/30 14:47:17;;;;;;;34.30;4.85;;;;;;;;;;4951585;28;106134;-64
2022/01/30 14:49:45;;;;;;;30.65;4.38;;;;;;;;;;4948156;28;107792;-64
2022/01/30 14:52:14;;;;;;;28.95;4.10;;;;;;;;;;4945413;28;108163;-64
2022/01/30 14:54:40;;;;;;;34.42;4.63;;;;;;;;;;4948771;28;106759;-65
2022/01/30 14:57:07;;;;;;;27.80;3.83;;;;;;;;;;4948937;28;106651;-67
2022/01/30 14:59:33;;;;;;;32.90;4.22;;;;;;;;;;4949395;28;106712;-66
2022/01/30 15:02:00;;;;;;;27.13;4.15;;;;;;;;;;4947568;28;106261;-64
2022/01/30 15:04:26;;;;;;;27.50;3.95;;;;;;;;;;4947508;28;108161;-65
2022/01/30 15:06:53;;;;;;;23.73;3.65;;;;;;;;;;4955018;28;107491;-64
2022/01/30 15:09:19;;;;;;;29.35;4.05;;;;;;;;;;4947584;28;107641;-65
2022/01/30 15:11:46;;;;;;;29.35;3.83;;;;;;;;;;4947569;28;106324;-65
2022/01/30 15:14:12;;;;;;;23.27;3.88;;;;;;;;;;4930197;28;106961;-64
2022/01/30 15:16:49;;;;;;;37.20;4.10;;;;;;;;;;4946490;28;107455;-65
2022/01/30 15:19:16;;;;;;;18.95;3.88;;;;;;;;;;4938234;28;107251;-64
2022/01/30 15:21:43;;;;;;;24.42;3.75;;;;;;;;;;4942660;28;106637;-65
2022/01/30 15:24:10;;;;;;;27.13;4.05;;;;;;;;;;4942022;28;109901;-66
2022/01/30 15:26:36;;;;;;;33.08;3.92;;;;;;;;;;4949376;28;107605;-65
2022/01/30 15:29:04;;;;;;;36.45;5.65;;;;;;;;;;4947734;28;108473;-68
2022/01/30 15:31:30;;;;;;;26.77;5.05;;;;;;;;;;4943889;28;107287;-65
2022/01/30 15:33:59;;;;;;;30.27;4.53;;;;;;;;;;4941444;28;109472;-64
2022/01/30 15:36:25;;;;;;;26.10;4.30;;;;;;;;;;4942727;28;106621;-64